createdAt,value
2023-02-05T00:03:02.449Z,99160.53
2023-02-05T00:08:04.229Z,99149.09
2023-02-05T00:13:08.944Z,99147.69
2023-02-05T00:18:10.636Z,99141.31
2023-02-05T00:23:12.333Z,99137.94
2023-02-05T00:28:14.367Z,99143.63
2023-02-05T00:33:16.133Z,99140.53
2023-02-05T00:38:17.975Z,99153.00
2023-02-05T00:43:19.819Z,99154.97
2023-02-05T00:48:21.525Z,99159.34
2023-02-05T00:53:24.683Z,99156.22
2023-02-05T00:58:27.041Z,99152.28
2023-02-05T01:03:28.768Z,99149.31
2023-02-05T01:08:30.974Z,99143.22
2023-02-05T01:13:32.617Z,99139.06
2023-02-05T01:18:34.247Z,99147.56
2023-02-05T01:23:35.906Z,99137.13
2023-02-05T01:28:37.608Z,99142.66
2023-02-05T01:33:39.236Z,99153.03
2023-02-05T01:38:40.846Z,99146.38
2023-02-05T01:43:42.530Z,99159.16
2023-02-05T01:48:48.667Z,99157.44
2023-02-05T01:53:50.687Z,99140.47
2023-02-05T01:59:02.736Z,99140.19
2023-02-05T02:04:05.092Z,99137.19
2023-02-05T02:09:08.565Z,99133.41
2023-02-05T02:14:11.890Z,99131.72
2023-02-05T02:19:45.329Z,99129.72
2023-02-05T02:25:25.504Z,99119.72
2023-02-05T02:30:35.099Z,99115.78
2023-02-05T02:35:47.171Z,99116.19
2023-02-05T02:40:54.508Z,99109.50
2023-02-05T02:46:06.843Z,99112.19
2023-02-05T02:51:11.304Z,99111.06
2023-02-05T02:56:14.927Z,99101.59
2023-02-05T03:01:21.428Z,99090.97
2023-02-05T03:06:23.270Z,99084.78
2023-02-05T03:11:27.020Z,99075.44
2023-02-05T03:16:29.060Z,99062.75
2023-02-05T03:21:36.608Z,99066.50
2023-02-05T03:26:38.564Z,99056.59
2023-02-05T03:32:28.283Z,99053.22
2023-02-05T03:37:44.832Z,99060.03
2023-02-05T03:43:30.121Z,99064.03
2023-02-05T03:48:35.903Z,99086.13
2023-02-05T03:54:00.398Z,99082.72
2023-02-05T03:59:03.930Z,99076.66
2023-02-05T04:04:05.901Z,99070.44
2023-02-05T04:09:07.930Z,99069.19
2023-02-05T04:14:10.090Z,99066.91
2023-02-05T04:19:13.255Z,99060.75
2023-02-05T04:24:15.366Z,99051.69
2023-02-05T04:29:17.440Z,99037.41
2023-02-05T04:34:21.947Z,99044.81
2023-02-05T04:39:24.325Z,99050.88
2023-02-05T04:44:25.968Z,99050.19
2023-02-05T04:49:28.143Z,99057.22
2023-02-05T04:54:29.871Z,99054.34
2023-02-05T04:59:31.836Z,99042.88
2023-02-05T05:04:33.579Z,99029.88
2023-02-05T05:09:36.754Z,99027.47
2023-02-05T05:14:38.657Z,99031.47
2023-02-05T05:19:40.701Z,99037.88
2023-02-05T05:24:42.304Z,99036.59
2023-02-05T05:29:44.821Z,99034.31
2023-02-05T05:34:46.564Z,99033.75
2023-02-05T05:40:06.941Z,99039.66
2023-02-05T05:45:08.941Z,99035.72
2023-02-05T05:50:10.582Z,99046.72
2023-02-05T05:55:12.447Z,99029.31
2023-02-05T06:00:14.718Z,99034.53
2023-02-05T06:05:16.609Z,99040.50
2023-02-05T06:10:18.358Z,99038.09
2023-02-05T06:15:20.001Z,99048.75
2023-02-05T06:20:21.921Z,99056.09
2023-02-05T06:25:23.667Z,99050.00
2023-02-05T06:30:25.395Z,99055.53
2023-02-05T06:35:27.123Z,99053.69
2023-02-05T06:40:29.148Z,99054.41
2023-02-05T06:45:30.873Z,99051.31
2023-02-05T06:50:32.576Z,99056.81
2023-02-05T06:55:34.556Z,99061.31
2023-02-05T07:00:36.345Z,99062.03
2023-02-05T07:05:37.928Z,99056.38
2023-02-05T07:10:39.698Z,99043.22
2023-02-05T07:15:41.408Z,99043.91
2023-02-05T07:20:43.121Z,99040.09
2023-02-05T07:25:45.074Z,99037.13
2023-02-05T07:30:47.844Z,99048.38
2023-02-05T07:35:49.510Z,99056.56
2023-02-05T07:40:51.533Z,99048.88
2023-02-05T07:46:01.161Z,99046.31
2023-02-05T07:51:03.138Z,99055.91
2023-02-05T07:56:05.115Z,99075.53
2023-02-05T08:01:07.483Z,99064.56
2023-02-05T08:06:13.972Z,99070.75
2023-02-05T08:11:17.228Z,99066.00
2023-02-05T08:16:19.060Z,99045.97
2023-02-05T08:21:21.821Z,99036.28
2023-02-05T08:26:23.486Z,99026.03
2023-02-05T08:31:26.153Z,99019.25
2023-02-05T08:36:28.952Z,98998.00
2023-02-05T08:41:30.631Z,98989.69
2023-02-05T08:46:47.566Z,98992.81
2023-02-05T08:51:51.445Z,98974.91
2023-02-05T08:56:53.105Z,98966.38
2023-02-05T09:01:54.836Z,98956.69
2023-02-05T09:06:56.709Z,98954.25
2023-02-05T09:11:58.738Z,98945.84
2023-02-05T09:17:00.313Z,98947.41
2023-02-05T09:22:02.229Z,98950.81
2023-02-05T09:27:06.344Z,98952.53
2023-02-05T09:32:08.477Z,98941.28
2023-02-05T09:37:10.385Z,98949.22
2023-02-05T09:42:27.814Z,98922.22
2023-02-05T09:47:37.699Z,98916.47
2023-02-05T09:52:44.878Z,98902.59
2023-02-05T09:57:46.679Z,98892.41
2023-02-05T10:03:01.125Z,98879.69
2023-02-05T10:08:26.860Z,98867.59
2023-02-05T10:13:35.420Z,98862.22
2023-02-05T10:19:08.456Z,98862.59
2023-02-05T10:24:48.421Z,98857.13
2023-02-05T10:30:12.516Z,98853.69
2023-02-05T10:35:48.573Z,98854.28
2023-02-05T10:40:54.783Z,98837.31
2023-02-05T10:45:58.210Z,98841.66
2023-02-05T10:51:03.388Z,98838.50
2023-02-05T10:56:06.185Z,98839.75
2023-02-05T11:01:12.492Z,98837.59
2023-02-05T11:06:14.362Z,98824.44
2023-02-05T11:11:28.762Z,98824.53
2023-02-05T11:16:40.889Z,98811.38
2023-02-05T11:21:47.806Z,98818.94
2023-02-05T11:26:49.614Z,98807.72
2023-02-05T11:31:51.917Z,98811.09
2023-02-05T11:36:56.991Z,98801.16
2023-02-05T11:42:09.495Z,98801.25
2023-02-05T11:47:11.229Z,98799.22
2023-02-05T11:52:15.183Z,98794.41
2023-02-05T11:57:19.967Z,98790.94
2023-02-05T12:02:30.682Z,98800.59
2023-02-05T12:07:58.530Z,98791.41
2023-02-05T12:13:09.156Z,98786.66
2023-02-05T12:18:38.297Z,98791.03
2023-02-05T12:24:30.821Z,98775.44
2023-02-05T12:29:35.447Z,98783.94
2023-02-05T12:34:56.046Z,98772.72
2023-02-05T12:40:03.523Z,98778.16
2023-02-05T12:45:17.456Z,98771.03
2023-02-05T12:50:54.560Z,98776.81
2023-02-05T12:56:40.662Z,98765.97
2023-02-05T13:01:45.229Z,98754.38
2023-02-05T13:06:56.560Z,98759.03
2023-02-05T13:12:04.982Z,98756.06
2023-02-05T13:17:19.500Z,98747.66
2023-02-05T13:22:43.828Z,98752.00
2023-02-05T13:28:11.649Z,98741.72
2023-02-05T13:33:14.639Z,98737.06
2023-02-05T13:39:01.580Z,98734.72
2023-02-05T13:44:39.600Z,98741.81
2023-02-05T13:50:04.619Z,98729.94
2023-02-05T13:55:26.551Z,98721.03
2023-02-05T14:00:29.282Z,98705.16
2023-02-05T14:05:36.040Z,98718.34
2023-02-05T14:10:43.261Z,98708.72
2023-02-05T14:15:45.254Z,98725.84
2023-02-05T14:20:46.962Z,98718.34
2023-02-05T14:26:06.403Z,98722.09
2023-02-05T14:31:08.136Z,98718.09
2023-02-05T14:36:20.888Z,98724.91
2023-02-05T14:41:40.101Z,98729.59
2023-02-05T14:46:46.247Z,98735.22
2023-02-05T14:52:00.485Z,98731.84
2023-02-05T14:57:11.149Z,98739.97
2023-02-05T15:02:50.565Z,98751.84
2023-02-05T15:08:00.128Z,98753.28
2023-02-05T15:13:09.020Z,98743.81
2023-02-05T15:18:24.170Z,98742.91
2023-02-05T15:23:43.884Z,98751.03
2023-02-05T15:28:56.102Z,98760.19
2023-02-05T15:34:00.252Z,98754.59
2023-02-05T15:39:31.481Z,98740.19
2023-02-05T15:44:35.633Z,98741.59
2023-02-05T15:49:43.135Z,98739.84
2023-02-05T15:54:45.268Z,98727.22
2023-02-05T15:59:47.260Z,98740.47
2023-02-05T16:04:55.586Z,98740.84
2023-02-05T16:09:59.557Z,98759.53
2023-02-05T16:15:04.737Z,98760.25
2023-02-05T16:20:18.524Z,98771.09
2023-02-05T16:25:28.022Z,98766.22
2023-02-05T16:30:51.958Z,98761.00
2023-02-05T16:35:54.243Z,98764.09
2023-02-05T16:41:00.213Z,98764.94
2023-02-05T16:46:08.074Z,98768.88
2023-02-05T16:51:32.467Z,98775.00
2023-02-05T16:56:37.989Z,98776.56
2023-02-05T17:01:43.608Z,98776.13
2023-02-05T17:06:45.392Z,98788.78
2023-02-05T17:11:47.123Z,98797.09
2023-02-05T17:17:00.941Z,98794.88
2023-02-05T17:22:14.581Z,98803.19
2023-02-05T17:27:21.029Z,98807.91
2023-02-05T17:32:23.867Z,98810.63
2023-02-05T17:37:25.826Z,98798.41
2023-02-05T17:42:29.836Z,98779.09
2023-02-05T17:47:31.519Z,98772.00
2023-02-05T17:52:33.251Z,98773.47
2023-02-05T17:57:36.404Z,98786.25
2023-02-05T18:02:38.031Z,98773.63
2023-02-05T18:07:49.514Z,98784.50
2023-02-05T18:12:52.207Z,98780.84
2023-02-05T18:17:53.912Z,98792.56
2023-02-05T18:22:55.749Z,98798.16
2023-02-05T18:27:57.572Z,98802.84
2023-02-05T18:32:59.302Z,98818.72
2023-02-05T18:38:00.942Z,98816.28
2023-02-05T18:43:02.688Z,98803.56
2023-02-05T18:48:04.367Z,98812.44
2023-02-05T18:53:06.578Z,98817.28
2023-02-05T18:58:08.397Z,98825.81
2023-02-05T19:03:10.073Z,98820.38
2023-02-05T19:08:11.820Z,98843.59
2023-02-05T19:13:13.444Z,98838.06
2023-02-05T19:18:16.062Z,98830.72
2023-02-05T19:23:17.685Z,98848.47
2023-02-05T19:28:19.825Z,98846.72
2023-02-05T19:33:21.636Z,98845.31
2023-02-05T19:38:23.260Z,98855.31
2023-02-05T19:43:24.946Z,98868.72
2023-02-05T19:48:28.862Z,98869.06
2023-02-05T19:53:30.878Z,98875.19
2023-02-05T19:58:34.276Z,98868.84
2023-02-05T20:03:35.945Z,98885.41
2023-02-05T20:08:38.109Z,98871.22
2023-02-05T20:13:40.978Z,98885.59
2023-02-05T20:18:43.363Z,98893.19
2023-02-05T20:23:45.959Z,98906.22
2023-02-05T20:29:11.387Z,98911.16
2023-02-05T20:34:18.711Z,98909.44
2023-02-05T20:39:22.009Z,98921.97
2023-02-05T20:44:25.539Z,98930.09
2023-02-05T20:49:27.200Z,98948.34
2023-02-05T20:54:28.785Z,98950.25
2023-02-05T20:59:36.537Z,98962.25
2023-02-05T21:04:38.303Z,98965.66
2023-02-05T21:09:40.023Z,98966.28
2023-02-05T21:14:41.850Z,98972.72
2023-02-05T21:19:43.527Z,98966.28
2023-02-05T21:24:45.136Z,98970.88
2023-02-05T21:29:48.963Z,98969.69
2023-02-05T21:34:50.735Z,98996.41
2023-02-05T21:39:53.011Z,99007.91
2023-02-05T21:44:56.860Z,99009.06
2023-02-05T21:49:58.513Z,99006.88
2023-02-05T21:55:00.428Z,99004.00
2023-02-05T22:00:04.110Z,99008.25
2023-02-05T22:05:15.248Z,99015.31
2023-02-05T22:10:16.872Z,99016.69
2023-02-05T22:15:18.557Z,99018.72
2023-02-05T22:20:20.213Z,99021.25
2023-02-05T22:25:21.813Z,99031.53
2023-02-05T22:30:23.640Z,99034.56
2023-02-05T22:35:25.338Z,99045.91
2023-02-05T22:40:27.411Z,99054.53
2023-02-05T22:45:31.310Z,99049.47
2023-02-05T22:50:36.767Z,99048.09
2023-02-05T22:55:39.901Z,99053.50
2023-02-05T23:00:41.594Z,99054.31
2023-02-05T23:05:43.239Z,99048.75
2023-02-05T23:10:45.010Z,99066.63
2023-02-05T23:15:46.709Z,99079.75
2023-02-05T23:20:48.661Z,99090.88
2023-02-05T23:25:51.918Z,99092.56
2023-02-05T23:30:53.692Z,99103.31
2023-02-05T23:35:55.740Z,99106.97
2023-02-05T23:40:58.372Z,99106.66
2023-02-05T23:46:00.821Z,99111.63
2023-02-05T23:51:02.935Z,99126.69
2023-02-05T23:56:04.782Z,99129.22
